Wilson Gdynia — 8PSA — position and weather

sailwx.info

Track history (hours):
 
Tides and Currents Weather Stations Pressure Air Temp Water Temp Dewpoint Dewpoint Depression Visibility Wind Speed Wind Dir Waves Ship Positions

Wilson Gdynia

Last reported at 2014-Nov-15 11:33 UTC. Time now 2014-Nov-24 17:58 UTC.
Position N 47°57' W 005°23'.
Warning: this ship's position is 9 days out of date.

Length 88 m; draft 5.4 m.

Type: Cargo ship. MMSI: 314192000.

Date/timePositionNaut miles runAvg speedWind from/ knotsBaromVisibWave heightAir tempDewpointWater temp
2014-Nov-15 11:33N 47°57' W 005°23'7 7.2
2014-Nov-15 10:33N 48°04' W 005°28'6 6.5
2014-Nov-15 09:33N 48°09' W 005°34'6 6.5
2014-Nov-15 08:33N 48°15' W 005°39'259 5.6
2014-Nov-13 10:11N 50°31' E 000°00'5 6.7
2014-Nov-13 09:24N 50°32' E 000°08'6 7.7
2014-Nov-13 08:34N 50°34' E 000°18'10 8.6
2014-Nov-13 07:25N 50°38' E 000°32'8 8.8
2014-Nov-13 06:33N 50°41' E 000°43'8 7.8
2014-Nov-13 05:33N 50°46' E 000°53'15 6.7
2014-Nov-13 03:20N 50°55' E 001°11'5 6.1
2014-Nov-13 02:33N 50°58' E 001°17'6 6.2
2014-Nov-13 01:33N 51°03' E 001°24'8 7.7
2014-Nov-13 00:33N 51°07' E 001°34'9 9.3
2014-Nov-12 23:34N 51°14' E 001°45'9 9.5
2014-Nov-12 22:33N 51°22' E 001°51'9 8.8
2014-Nov-12 21:32N 51°30' E 001°58'8 8.1
2014-Nov-12 20:33N 51°37' E 002°03'7 7.2
2014-Nov-12 19:33N 51°44' E 002°07'17 5.6
2014-Nov-12 16:30N 52°01' E 002°10'5 5.0
2014-Nov-12 15:34N 52°06' E 002°09'5 5.4
2014-Nov-12 14:33N 52°11' E 002°08'7 6.3
2014-Nov-12 13:22N 52°19' E 002°06'6 7.2
2014-Nov-12 12:33N 52°24' E 002°04'8 8.2
2014-Nov-12 11:33N 52°32' E 002°02'9 8.8
2014-Nov-12 10:33N 52°41' E 001°57'9 9.3
2014-Nov-12 09:33N 52°48' E 001°48'9 8.8
2014-Nov-12 08:33N 52°55' E 001°38'8 8.0
2014-Nov-12 07:33N 53°01' E 001°29'8 7.9
2014-Nov-12 06:32N 53°07' E 001°22'44 6.1
2014-Nov-11 23:23N 53°45' E 000°43'5 6.3
2014-Nov-11 22:33N 53°49' E 000°38'6 6.5
2014-Nov-11 21:33N 53°54' E 000°32'7 6.7
2014-Nov-11 20:33N 53°60' E 000°25'7 6.7
2014-Nov-11 19:33N 54°05' E 000°19'6 6.0
2014-Nov-11 18:33N 54°10' E 000°13'6 5.9
2014-Nov-11 17:33N 54°15' E 000°07'6 5.5
2014-Nov-11 16:33N 54°20' E 000°02'5 5.0
2014-Nov-11 15:33N 54°24' W 000°03'4 4.4
2014-Nov-11 14:33N 54°28' W 000°07'4 4.4
2014-Nov-11 13:33N 54°31' W 000°11'4 4.1
2014-Nov-11 12:34N 54°35' W 000°15'4 4.4
2014-Nov-11 11:33N 54°38' W 000°19'4 4.3
2014-Nov-11 10:33N 54°42' W 000°23'11 5.5
2014-Nov-11 08:33N 54°51' W 000°34'9 6.9
2014-Nov-11 07:11N 54°59' W 000°43'5 6.7
2014-Nov-11 06:30N 55°03' W 000°47'58 7.3
2014-Nov-10 22:33N 55°50' W 001°49'8 7.5
2014-Nov-10 21:30N 55°55' W 001°60'8 8.0
2014-Nov-10 20:33N 55°59' W 002°10'8 8.5
2014-Nov-10 19:33N 56°03' W 002°24'9 9.2
2014-Nov-10 18:33N 56°06' W 002°40'9 9.4
2014-Nov-10 17:33N 56°04' W 002°56'9 8.7
2014-Nov-10 16:33N 56°02' W 003°12'7 6.8
2014-Nov-10 15:33N 56°01' W 003°24'0 0.0
2014-Nov-10 14:33N 56°01' W 003°24'0 0.0
2014-Nov-10 13:33N 56°01' W 003°24'0 0.0
2014-Nov-10 12:33N 56°01' W 003°24'0 0.0
2014-Nov-10 11:33N 56°01' W 003°24'0 0.0
2014-Nov-10 10:24N 56°01' W 003°24'0 0.0
2014-Nov-10 09:33N 56°01' W 003°24'0 0.0
2014-Nov-10 08:33N 56°01' W 003°24'0 0.0
2014-Nov-10 07:33N 56°01' W 003°24'0 0.0
2014-Nov-10 06:33N 56°01' W 003°24'0 0.0
2014-Nov-10 05:33N 56°01' W 003°24'0 0.0
2014-Nov-10 04:33N 56°01' W 003°24'0 0.0
2014-Nov-10 03:33N 56°01' W 003°24'0 0.0
2014-Nov-10 02:33N 56°01' W 003°24'0 0.0
2014-Nov-10 01:33N 56°01' W 003°24'0 0.0
2014-Nov-10 00:33N 56°01' W 003°24'0 0.0
2014-Nov-09 23:33N 56°01' W 003°24'0 0.0
2014-Nov-09 22:33N 56°01' W 003°24'0 0.0
2014-Nov-09 21:33N 56°01' W 003°24'0 0.0
2014-Nov-09 20:33N 56°01' W 003°24'0 0.0
2014-Nov-09 19:30N 56°01' W 003°24'0 0.0
2014-Nov-09 18:33N 56°01' W 003°24'0 0.0
2014-Nov-09 17:33N 56°01' W 003°24'0 0.0
2014-Nov-09 16:33N 56°01' W 003°24'0 0.0
2014-Nov-09 15:33N 56°01' W 003°24'0 0.0
2014-Nov-09 14:33N 56°01' W 003°24'4 4.5
2014-Nov-09 13:33N 56°02' W 003°16'5 4.9
2014-Nov-09 12:29N 56°02' W 003°06'0 0.0
2014-Nov-09 11:32N 56°02' W 003°07'0 0.0
2014-Nov-09 10:33N 56°02' W 003°07'0 0.0
2014-Nov-09 09:32N 56°02' W 003°07'0 0.0
2014-Nov-09 08:32N 56°02' W 003°07'0 0.0
2014-Nov-09 07:32N 56°02' W 003°06'0 0.1
2014-Nov-09 06:32N 56°02' W 003°06'0 0.0
2014-Nov-09 05:32N 56°02' W 003°06'0 0.0
2014-Nov-09 04:23N 56°02' W 003°06'0 0.0
2014-Nov-09 03:26N 56°02' W 003°06'0 0.0
2014-Nov-09 02:26N 56°02' W 003°06'0 0.0
2014-Nov-09 01:26N 56°02' W 003°06'0 0.0
2014-Nov-09 00:30N 56°02' W 003°06'5 5.1
2014-Nov-08 23:33N 56°04' W 002°59'1111.2
2014-Nov-08 22:33N 56°06' W 002°39'1111.4
2014-Nov-08 21:33N 56°01' W 002°20'1211.6
2014-Nov-08 20:33N 55°55' W 002°02'7 0.2
2014-Nov-07 10:10N 55°50' W 001°55'4 6.5
2014-Nov-07 09:33N 55°53' W 002°01'7 6.7
2014-Nov-07 08:33N 55°57' W 002°10'5 5.5
2014-Nov-07 07:33N 56°02' W 002°13'5 5.3
2014-Nov-07 06:33N 56°07' W 002°12'5 4.1
2014-Nov-07 05:14N 56°13' W 002°11'84 4.0
2014-Nov-06 08:04N 57°35' W 001°33'3 4.9
2014-Nov-06 07:33N 57°37' W 001°32'5 5.0
2014-Nov-06 06:34N 57°42' W 001°35'5 4.9
2014-Nov-06 05:33N 57°46' W 001°41'61 7.4
2014-Nov-05 21:26N 58°34' W 002°50'1112.8
2014-Nov-05 20:33N 58°43' W 003°04'1212.1
2014-Nov-05 19:33N 58°43' W 003°27'10 9.8
2014-Nov-05 18:33N 58°43' W 003°46'9 9.2
2014-Nov-05 17:33N 58°42' W 004°04'  
Track history (hours):
 
Tides and Currents Weather Stations Pressure Air Temp Water Temp Dewpoint Dewpoint Depression Visibility Wind Speed Wind Dir Waves Ship Positions

Wilson Gdynia

Last reported at 2014-Nov-15 11:33 UTC. Time now 2014-Nov-24 17:58 UTC.
Position N 47°57' W 005°23'.
Warning: this ship's position is 9 days out of date.

Length 88 m; draft 5.4 m.

Type: Cargo ship. MMSI: 314192000.

Date/timePositionNaut miles runAvg speedWind from/ knotsBaromVisibWave heightAir tempDewpointWater temp
2014-Nov-15 11:33N 47°57' W 005°23'7 7.2
2014-Nov-15 10:33N 48°04' W 005°28'6 6.5
2014-Nov-15 09:33N 48°09' W 005°34'6 6.5
2014-Nov-15 08:33N 48°15' W 005°39'259 5.6
2014-Nov-13 10:11N 50°31' E 000°00'5 6.7
2014-Nov-13 09:24N 50°32' E 000°08'6 7.7
2014-Nov-13 08:34N 50°34' E 000°18'10 8.6
2014-Nov-13 07:25N 50°38' E 000°32'8 8.8
2014-Nov-13 06:33N 50°41' E 000°43'8 7.8
2014-Nov-13 05:33N 50°46' E 000°53'15 6.7
2014-Nov-13 03:20N 50°55' E 001°11'5 6.1
2014-Nov-13 02:33N 50°58' E 001°17'6 6.2
2014-Nov-13 01:33N 51°03' E 001°24'8 7.7
2014-Nov-13 00:33N 51°07' E 001°34'9 9.3
2014-Nov-12 23:34N 51°14' E 001°45'9 9.5
2014-Nov-12 22:33N 51°22' E 001°51'9 8.8
2014-Nov-12 21:32N 51°30' E 001°58'8 8.1
2014-Nov-12 20:33N 51°37' E 002°03'7 7.2
2014-Nov-12 19:33N 51°44' E 002°07'17 5.6
2014-Nov-12 16:30N 52°01' E 002°10'5 5.0
2014-Nov-12 15:34N 52°06' E 002°09'5 5.4
2014-Nov-12 14:33N 52°11' E 002°08'7 6.3
2014-Nov-12 13:22N 52°19' E 002°06'6 7.2
2014-Nov-12 12:33N 52°24' E 002°04'8 8.2
2014-Nov-12 11:33N 52°32' E 002°02'9 8.8
2014-Nov-12 10:33N 52°41' E 001°57'9 9.3
2014-Nov-12 09:33N 52°48' E 001°48'9 8.8
2014-Nov-12 08:33N 52°55' E 001°38'8 8.0
2014-Nov-12 07:33N 53°01' E 001°29'8 7.9
2014-Nov-12 06:32N 53°07' E 001°22'44 6.1
2014-Nov-11 23:23N 53°45' E 000°43'5 6.3
2014-Nov-11 22:33N 53°49' E 000°38'6 6.5
2014-Nov-11 21:33N 53°54' E 000°32'7 6.7
2014-Nov-11 20:33N 53°60' E 000°25'7 6.7
2014-Nov-11 19:33N 54°05' E 000°19'6 6.0
2014-Nov-11 18:33N 54°10' E 000°13'6 5.9
2014-Nov-11 17:33N 54°15' E 000°07'6 5.5
2014-Nov-11 16:33N 54°20' E 000°02'5 5.0
2014-Nov-11 15:33N 54°24' W 000°03'4 4.4
2014-Nov-11 14:33N 54°28' W 000°07'4 4.4
2014-Nov-11 13:33N 54°31' W 000°11'4 4.1
2014-Nov-11 12:34N 54°35' W 000°15'4 4.4
2014-Nov-11 11:33N 54°38' W 000°19'4 4.3
2014-Nov-11 10:33N 54°42' W 000°23'11 5.5
2014-Nov-11 08:33N 54°51' W 000°34'9 6.9
2014-Nov-11 07:11N 54°59' W 000°43'5 6.7
2014-Nov-11 06:30N 55°03' W 000°47'58 7.3
2014-Nov-10 22:33N 55°50' W 001°49'8 7.5
2014-Nov-10 21:30N 55°55' W 001°60'8 8.0
2014-Nov-10 20:33N 55°59' W 002°10'8 8.5
2014-Nov-10 19:33N 56°03' W 002°24'9 9.2
2014-Nov-10 18:33N 56°06' W 002°40'9 9.4
2014-Nov-10 17:33N 56°04' W 002°56'9 8.7
2014-Nov-10 16:33N 56°02' W 003°12'7 6.8
2014-Nov-10 15:33N 56°01' W 003°24'0 0.0
2014-Nov-10 14:33N 56°01' W 003°24'0 0.0
2014-Nov-10 13:33N 56°01' W 003°24'0 0.0
2014-Nov-10 12:33N 56°01' W 003°24'0 0.0
2014-Nov-10 11:33N 56°01' W 003°24'0 0.0
2014-Nov-10 10:24N 56°01' W 003°24'0 0.0
2014-Nov-10 09:33N 56°01' W 003°24'0 0.0
2014-Nov-10 08:33N 56°01' W 003°24'0 0.0
2014-Nov-10 07:33N 56°01' W 003°24'0 0.0
2014-Nov-10 06:33N 56°01' W 003°24'0 0.0
2014-Nov-10 05:33N 56°01' W 003°24'0 0.0
2014-Nov-10 04:33N 56°01' W 003°24'0 0.0
2014-Nov-10 03:33N 56°01' W 003°24'0 0.0
2014-Nov-10 02:33N 56°01' W 003°24'0 0.0
2014-Nov-10 01:33N 56°01' W 003°24'0 0.0
2014-Nov-10 00:33N 56°01' W 003°24'0 0.0
2014-Nov-09 23:33N 56°01' W 003°24'0 0.0
2014-Nov-09 22:33N 56°01' W 003°24'0 0.0
2014-Nov-09 21:33N 56°01' W 003°24'0 0.0
2014-Nov-09 20:33N 56°01' W 003°24'0 0.0
2014-Nov-09 19:30N 56°01' W 003°24'0 0.0
2014-Nov-09 18:33N 56°01' W 003°24'0 0.0
2014-Nov-09 17:33N 56°01' W 003°24'0 0.0
2014-Nov-09 16:33N 56°01' W 003°24'0 0.0
2014-Nov-09 15:33N 56°01' W 003°24'0 0.0
2014-Nov-09 14:33N 56°01' W 003°24'4 4.5
2014-Nov-09 13:33N 56°02' W 003°16'5 4.9
2014-Nov-09 12:29N 56°02' W 003°06'0 0.0
2014-Nov-09 11:32N 56°02' W 003°07'0 0.0
2014-Nov-09 10:33N 56°02' W 003°07'0 0.0
2014-Nov-09 09:32N 56°02' W 003°07'0 0.0
2014-Nov-09 08:32N 56°02' W 003°07'0 0.0
2014-Nov-09 07:32N 56°02' W 003°06'0 0.1
2014-Nov-09 06:32N 56°02' W 003°06'0 0.0
2014-Nov-09 05:32N 56°02' W 003°06'0 0.0
2014-Nov-09 04:23N 56°02' W 003°06'0 0.0
2014-Nov-09 03:26N 56°02' W 003°06'0 0.0
2014-Nov-09 02:26N 56°02' W 003°06'0 0.0
2014-Nov-09 01:26N 56°02' W 003°06'0 0.0
2014-Nov-09 00:30N 56°02' W 003°06'5 5.1
2014-Nov-08 23:33N 56°04' W 002°59'1111.2
2014-Nov-08 22:33N 56°06' W 002°39'1111.4
2014-Nov-08 21:33N 56°01' W 002°20'1211.6
2014-Nov-08 20:33N 55°55' W 002°02'7 0.2
2014-Nov-07 10:10N 55°50' W 001°55'4 6.5
2014-Nov-07 09:33N 55°53' W 002°01'7 6.7
2014-Nov-07 08:33N 55°57' W 002°10'5 5.5
2014-Nov-07 07:33N 56°02' W 002°13'5 5.3
2014-Nov-07 06:33N 56°07' W 002°12'5 4.1
2014-Nov-07 05:14N 56°13' W 002°11'84 4.0
2014-Nov-06 08:04N 57°35' W 001°33'3 4.9
2014-Nov-06 07:33N 57°37' W 001°32'5 5.0
2014-Nov-06 06:34N 57°42' W 001°35'5 4.9
2014-Nov-06 05:33N 57°46' W 001°41'61 7.4
2014-Nov-05 21:26N 58°34' W 002°50'1112.8
2014-Nov-05 20:33N 58°43' W 003°04'1212.1
2014-Nov-05 19:33N 58°43' W 003°27'10 9.8
2014-Nov-05 18:33N 58°43' W 003°46'9 9.2
2014-Nov-05 17:33N 58°42' W 004°04'  

Dump ship's entire track history